首页
METAR-TAF:

METAR-TAF

机场 :

Mount Pleasant Regional Airport

Mount Pleasant, 得克萨斯州, 美国

纬度: 33-05-43N, 经度: 094-57-41W, 海拔: 111米

当前天气观测

该预报发布于8分钟前的11:55 UTC
静风
温度 -3°C
湿度 93%
气压 1034 hPa
能見度: 16.1公里
天空无云

METAR: KOSA 111155Z AUTO 00000KT 10SM CLR M03/M04 A3053 RMK AO1 70036 T10271037 10000 21032

时间: 06:03 (12:03 UTC)


TAF: 丢失

超过4000个机场的气象观测和天气预报(METAR&TAF报告)。

可查询的气象台以黄色和红色小点在地图上表示。

将鼠标移到小点上方,可查看气象台名称。

然后点击查看天气观测和预报。

如需切换地图:点击带黑十字的绿色按钮放大地图;点击带横线的绿色按钮缩小地图;或者点击绿色箭头查看邻近地区的地图。


METAR-TAF: